sensor_id;sensor_type;location;lat;lon;timestamp;pressure;altitude;pressure_sealevel;temperature;humidity
21203;BME280;10759;51.982;9.232;2022-08-21T00:00:24;100485.75;;;15.62;100.00
21203;BME280;10759;51.982;9.232;2022-08-21T00:02:57;100482.44;;;15.57;100.00
21203;BME280;10759;51.982;9.232;2022-08-21T00:05:28;100481.84;;;15.52;100.00
21203;BME280;10759;51.982;9.232;2022-08-21T00:07:56;100443.16;;;15.20;100.00
21203;BME280;10759;51.982;9.232;2022-08-21T00:10:25;100449.28;;;15.23;100.00
21203;BME280;10759;51.982;9.232;2022-08-21T00:12:54;100468.34;;;15.36;100.00
21203;BME280;10759;51.982;9.232;2022-08-21T00:15:25;100474.78;;;15.34;100.00
21203;BME280;10759;51.982;9.232;2022-08-21T00:17:54;100474.69;;;15.35;100.00
21203;BME280;10759;51.982;9.232;2022-08-21T00:20:23;100464.69;;;15.37;100.00
21203;BME280;10759;51.982;9.232;2022-08-21T00:22:51;100460.31;;;15.35;100.00
21203;BME280;10759;51.982;9.232;2022-08-21T00:25:21;100464.50;;;15.40;100.00
21203;BME280;10759;51.982;9.232;2022-08-21T00:27:52;100466.69;;;15.34;100.00
21203;BME280;10759;51.982;9.232;2022-08-21T00:30:21;100367.47;;;14.58;100.00
21203;BME280;10759;51.982;9.232;2022-08-21T00:32:51;100433.75;;;14.95;100.00
21203;BME280;10759;51.982;9.232;2022-08-21T00:35:22;100429.50;;;15.07;100.00
21203;BME280;10759;51.982;9.232;2022-08-21T00:37:52;100463.53;;;15.25;100.00
21203;BME280;10759;51.982;9.232;2022-08-21T00:40:29;100466.06;;;15.13;100.00
21203;BME280;10759;51.982;9.232;2022-08-21T00:42:58;100469.72;;;15.12;100.00
21203;BME280;10759;51.982;9.232;2022-08-21T00:45:26;100425.09;;;14.89;100.00
21203;BME280;10759;51.982;9.232;2022-08-21T00:47:55;100464.47;;;15.09;100.00
21203;BME280;10759;51.982;9.232;2022-08-21T00:50:26;100468.50;;;15.01;100.00
21203;BME280;10759;51.982;9.232;2022-08-21T00:52:59;100419.50;;;14.76;100.00
21203;BME280;10759;51.982;9.232;2022-08-21T00:55:30;100474.75;;;15.02;100.00
21203;BME280;10759;51.982;9.232;2022-08-21T00:58:03;100482.50;;;15.08;100.00
21203;BME280;10759;51.982;9.232;2022-08-21T01:00:38;100480.16;;;15.02;100.00
21203;BME280;10759;51.982;9.232;2022-08-21T01:03:10;100454.34;;;14.80;100.00
21203;BME280;10759;51.982;9.232;2022-08-21T01:05:40;100431.69;;;14.67;100.00
21203;BME280;10759;51.982;9.232;2022-08-21T01:08:10;100490.81;;;14.88;100.00
21203;BME280;10759;51.982;9.232;2022-08-21T01:10:39;100479.78;;;14.92;100.00
21203;BME280;10759;51.982;9.232;2022-08-21T01:13:09;100446.16;;;14.82;100.00
21203;BME280;10759;51.982;9.232;2022-08-21T01:15:40;100476.84;;;14.97;100.00
21203;BME280;10759;51.982;9.232;2022-08-21T01:18:11;100444.41;;;14.81;100.00
21203;BME280;10759;51.982;9.232;2022-08-21T01:20:43;100458.56;;;15.02;100.00
21203;BME280;10759;51.982;9.232;2022-08-21T01:23:13;100474.75;;;15.02;100.00
21203;BME280;10759;51.982;9.232;2022-08-21T01:25:42;100472.13;;;15.00;100.00
21203;BME280;10759;51.982;9.232;2022-08-21T01:28:13;100177.66;;;13.29;100.00
21203;BME280;10759;51.982;9.232;2022-08-21T01:30:44;100479.78;;;14.92;100.00
21203;BME280;10759;51.982;9.232;2022-08-21T01:33:12;100476.53;;;14.86;100.00
21203;BME280;10759;51.982;9.232;2022-08-21T01:35:40;100432.34;;;14.55;100.00
21203;BME280;10759;51.982;9.232;2022-08-21T01:38:09;100345.09;;;14.23;100.00
21203;BME280;10759;51.982;9.232;2022-08-21T01:40:38;100449.44;;;14.71;100.00
21203;BME280;10759;51.982;9.232;2022-08-21T01:43:06;100465.31;;;14.77;100.00
21203;BME280;10759;51.982;9.232;2022-08-21T01:45:34;100433.91;;;14.59;100.00
21203;BME280;10759;51.982;9.232;2022-08-21T01:48:03;100467.38;;;14.72;100.00
21203;BME280;10759;51.982;9.232;2022-08-21T01:50:31;100457.38;;;14.57;100.00
21203;BME280;10759;51.982;9.232;2022-08-21T01:52:59;100443.53;;;14.47;100.00
21203;BME280;10759;51.982;9.232;2022-08-21T01:55:27;100373.72;;;14.08;100.00
21203;BME280;10759;51.982;9.232;2022-08-21T01:57:58;100447.09;;;14.48;100.00
21203;BME280;10759;51.982;9.232;2022-08-21T02:00:26;100419.81;;;14.36;100.00
21203;BME280;10759;51.982;9.232;2022-08-21T02:02:54;100453.94;;;14.55;100.00
21203;BME280;10759;51.982;9.232;2022-08-21T02:05:23;100456.81;;;14.50;100.00
21203;BME280;10759;51.982;9.232;2022-08-21T02:07:53;100426.25;;;14.16;100.00
21203;BME280;10759;51.982;9.232;2022-08-21T02:10:25;100350.66;;;13.67;100.00
21203;BME280;10759;51.982;9.232;2022-08-21T02:12:54;100448.91;;;14.30;100.00
21203;BME280;10759;51.982;9.232;2022-08-21T02:15:24;100407.06;;;14.05;100.00
21203;BME280;10759;51.982;9.232;2022-08-21T02:17:55;100397.47;;;14.00;100.00
21203;BME280;10759;51.982;9.232;2022-08-21T02:20:26;100440.91;;;14.28;100.00
21203;BME280;10759;51.982;9.232;2022-08-21T02:22:55;100439.41;;;14.23;100.00
21203;BME280;10759;51.982;9.232;2022-08-21T02:25:25;100442.63;;;14.29;100.00
21203;BME280;10759;51.982;9.232;2022-08-21T02:27:54;100422.84;;;14.13;100.00
21203;BME280;10759;51.982;9.232;2022-08-21T02:30:26;100435.59;;;14.27;100.00
21203;BME280;10759;51.982;9.232;2022-08-21T02:32:55;100390.66;;;13.92;100.00
21203;BME280;10759;51.982;9.232;2022-08-21T02:35:23;100438.63;;;14.21;100.00
21203;BME280;10759;51.982;9.232;2022-08-21T02:37:53;100440.81;;;14.12;100.00
21203;BME280;10759;51.982;9.232;2022-08-21T02:40:23;100446.59;;;14.22;100.00
21203;BME280;10759;51.982;9.232;2022-08-21T02:42:53;100439.47;;;14.38;100.00
21203;BME280;10759;51.982;9.232;2022-08-21T02:45:21;100355.75;;;13.91;100.00
21203;BME280;10759;51.982;9.232;2022-08-21T02:47:52;100443.25;;;14.34;100.00
21203;BME280;10759;51.982;9.232;2022-08-21T02:50:25;100365.78;;;13.70;100.00
21203;BME280;10759;51.982;9.232;2022-08-21T02:52:54;100445.44;;;14.28;100.00
21203;BME280;10759;51.982;9.232;2022-08-21T02:55:25;100435.53;;;14.28;100.00
21203;BME280;10759;51.982;9.232;2022-08-21T02:57:55;100434.66;;;14.28;100.00
21203;BME280;10759;51.982;9.232;2022-08-21T03:00:26;100435.69;;;14.25;100.00
21203;BME280;10759;51.982;9.232;2022-08-21T03:02:57;100428.88;;;14.18;100.00
21203;BME280;10759;51.982;9.232;2022-08-21T03:05:27;100432.84;;;14.11;100.00
21203;BME280;10759;51.982;9.232;2022-08-21T03:07:58;100428.88;;;14.01;100.00
21203;BME280;10759;51.982;9.232;2022-08-21T03:10:27;100427.75;;;14.05;100.00
21203;BME280;10759;51.982;9.232;2022-08-21T03:12:58;100429.66;;;14.20;100.00
21203;BME280;10759;51.982;9.232;2022-08-21T03:15:26;100430.19;;;14.27;100.00
21203;BME280;10759;51.982;9.232;2022-08-21T03:17:56;100308.28;;;13.53;100.00
21203;BME280;10759;51.982;9.232;2022-08-21T03:20:26;100426.06;;;14.20;100.00
21203;BME280;10759;51.982;9.232;2022-08-21T03:22:55;100425.03;;;14.22;100.00
21203;BME280;10759;51.982;9.232;2022-08-21T03:25:24;100405.88;;;14.11;100.00
21203;BME280;10759;51.982;9.232;2022-08-21T03:28:09;100436.16;;;14.16;100.00
21203;BME280;10759;51.982;9.232;2022-08-21T03:30:39;100435.13;;;14.18;100.00
21203;BME280;10759;51.982;9.232;2022-08-21T03:33:09;100434.25;;;14.35;100.00
21203;BME280;10759;51.982;9.232;2022-08-21T03:35:41;100427.19;;;14.33;100.00
21203;BME280;10759;51.982;9.232;2022-08-21T03:38:11;100434.00;;;14.40;100.00
21203;BME280;10759;51.982;9.232;2022-08-21T03:40:39;100420.63;;;14.21;100.00
21203;BME280;10759;51.982;9.232;2022-08-21T03:43:08;100423.88;;;14.10;100.00
21203;BME280;10759;51.982;9.232;2022-08-21T03:45:37;100433.94;;;14.07;100.00
21203;BME280;10759;51.982;9.232;2022-08-21T03:48:06;100411.28;;;13.76;100.00
21203;BME280;10759;51.982;9.232;2022-08-21T03:50:40;100434.00;;;13.88;100.00
21203;BME280;10759;51.982;9.232;2022-08-21T03:53:09;100435.13;;;13.84;100.00
21203;BME280;10759;51.982;9.232;2022-08-21T03:55:44;100433.28;;;13.84;100.00
21203;BME280;10759;51.982;9.232;2022-08-21T03:58:12;100412.53;;;13.86;100.00
21203;BME280;10759;51.982;9.232;2022-08-21T04:00:43;100435.66;;;13.90;100.00
21203;BME280;10759;51.982;9.232;2022-08-21T04:03:12;100415.41;;;13.83;100.00
21203;BME280;10759;51.982;9.232;2022-08-21T04:05:41;100441.72;;;13.95;100.00
21203;BME280;10759;51.982;9.232;2022-08-21T04:08:13;100438.75;;;14.00;100.00
21203;BME280;10759;51.982;9.232;2022-08-21T04:10:42;100433.47;;;13.99;100.00
21203;BME280;10759;51.982;9.232;2022-08-21T04:13:11;100381.88;;;13.71;100.00
21203;BME280;10759;51.982;9.232;2022-08-21T04:15:41;100446.22;;;14.12;100.00
21203;BME280;10759;51.982;9.232;2022-08-21T04:18:09;100453.25;;;14.15;100.00
21203;BME280;10759;51.982;9.232;2022-08-21T04:20:37;100455.66;;;14.21;100.00
21203;BME280;10759;51.982;9.232;2022-08-21T04:23:07;100459.84;;;14.27;100.00
21203;BME280;10759;51.982;9.232;2022-08-21T04:25:35;100449.41;;;14.21;100.00
21203;BME280;10759;51.982;9.232;2022-08-21T04:28:04;100452.00;;;14.22;100.00
21203;BME280;10759;51.982;9.232;2022-08-21T04:30:32;100453.94;;;14.20;100.00
21203;BME280;10759;51.982;9.232;2022-08-21T04:33:00;100365.72;;;13.71;100.00
21203;BME280;10759;51.982;9.232;2022-08-21T04:35:29;100459.16;;;14.23;100.00
21203;BME280;10759;51.982;9.232;2022-08-21T04:37:58;100438.84;;;13.99;100.00
21203;BME280;10759;51.982;9.232;2022-08-21T04:40:28;100457.09;;;14.11;100.00
21203;BME280;10759;51.982;9.232;2022-08-21T04:43:02;100419.50;;;13.90;100.00
21203;BME280;10759;51.982;9.232;2022-08-21T04:45:32;100462.00;;;14.20;100.00
21203;BME280;10759;51.982;9.232;2022-08-21T04:48:03;100469.44;;;14.15;100.00
21203;BME280;10759;51.982;9.232;2022-08-21T04:50:39;100464.38;;;14.26;100.00
21203;BME280;10759;51.982;9.232;2022-08-21T04:53:13;100470.41;;;14.31;100.00
21203;BME280;10759;51.982;9.232;2022-08-21T04:55:43;100470.88;;;14.22;100.00
21203;BME280;10759;51.982;9.232;2022-08-21T04:58:12;100465.81;;;14.16;100.00
21203;BME280;10759;51.982;9.232;2022-08-21T05:00:43;100193.28;;;12.68;100.00
21203;BME280;10759;51.982;9.232;2022-08-21T05:03:12;100458.56;;;14.34;100.00
21203;BME280;10759;51.982;9.232;2022-08-21T05:05:41;100475.50;;;14.55;100.00
21203;BME280;10759;51.982;9.232;2022-08-21T05:08:12;100426.31;;;14.15;100.00
21203;BME280;10759;51.982;9.232;2022-08-21T05:10:43;100480.56;;;14.61;100.00
21203;BME280;10759;51.982;9.232;2022-08-21T05:13:12;100455.66;;;14.56;100.00
21203;BME280;10759;51.982;9.232;2022-08-21T05:15:40;100473.22;;;14.80;100.00
21203;BME280;10759;51.982;9.232;2022-08-21T05:18:09;100471.19;;;14.51;100.00
21203;BME280;10759;51.982;9.232;2022-08-21T05:20:38;100481.00;;;14.87;100.00
21203;BME280;10759;51.982;9.232;2022-08-21T05:23:07;100479.50;;;14.64;100.00
21203;BME280;10759;51.982;9.232;2022-08-21T05:25:35;100481.66;;;14.74;100.00
21203;BME280;10759;51.982;9.232;2022-08-21T05:28:05;100494.22;;;14.91;100.00
21203;BME280;10759;51.982;9.232;2022-08-21T05:30:35;100466.47;;;15.05;100.00
21203;BME280;10759;51.982;9.232;2022-08-21T05:33:05;100470.28;;;15.01;100.00
21203;BME280;10759;51.982;9.232;2022-08-21T05:35:34;100416.75;;;14.77;100.00
21203;BME280;10759;51.982;9.232;2022-08-21T05:38:03;100495.16;;;15.23;100.00
21203;BME280;10759;51.982;9.232;2022-08-21T05:40:42;100502.66;;;15.34;100.00
21203;BME280;10759;51.982;9.232;2022-08-21T05:43:12;100407.63;;;14.96;100.00
21203;BME280;10759;51.982;9.232;2022-08-21T05:45:41;100493.09;;;15.60;100.00
21203;BME280;10759;51.982;9.232;2022-08-21T05:48:12;100488.19;;;15.67;100.00
21203;BME280;10759;51.982;9.232;2022-08-21T05:50:41;100493.28;;;15.73;100.00
21203;BME280;10759;51.982;9.232;2022-08-21T05:53:09;100496.06;;;15.87;100.00
21203;BME280;10759;51.982;9.232;2022-08-21T05:55:38;100418.69;;;15.55;100.00
21203;BME280;10759;51.982;9.232;2022-08-21T05:58:14;100497.75;;;16.20;100.00
21203;BME280;10759;51.982;9.232;2022-08-21T06:00:44;100486.19;;;16.02;100.00
21203;BME280;10759;51.982;9.232;2022-08-21T06:03:16;100500.91;;;15.97;100.00
21203;BME280;10759;51.982;9.232;2022-08-21T06:05:45;100492.03;;;15.95;100.00
21203;BME280;10759;51.982;9.232;2022-08-21T06:08:14;100459.91;;;15.90;100.00
21203;BME280;10759;51.982;9.232;2022-08-21T06:10:43;100431.75;;;15.78;100.00
21203;BME280;10759;51.982;9.232;2022-08-21T06:13:13;100500.53;;;16.19;100.00
21203;BME280;10759;51.982;9.232;2022-08-21T06:15:41;100501.59;;;16.16;100.00
21203;BME280;10759;51.982;9.232;2022-08-21T06:18:10;100504.06;;;16.35;100.00
21203;BME280;10759;51.982;9.232;2022-08-21T06:20:38;100502.63;;;16.29;100.00
21203;BME280;10759;51.982;9.232;2022-08-21T06:23:06;100498.69;;;16.49;100.00
21203;BME280;10759;51.982;9.232;2022-08-21T06:25:35;100500.75;;;16.60;100.00
21203;BME280;10759;51.982;9.232;2022-08-21T06:28:05;100499.06;;;16.43;100.00
21203;BME280;10759;51.982;9.232;2022-08-21T06:30:36;100489.41;;;16.53;100.00
21203;BME280;10759;51.982;9.232;2022-08-21T06:33:05;100497.75;;;16.65;100.00
21203;BME280;10759;51.982;9.232;2022-08-21T06:35:34;100498.91;;;16.91;100.00
21203;BME280;10759;51.982;9.232;2022-08-21T06:38:07;100496.84;;;16.94;100.00
21203;BME280;10759;51.982;9.232;2022-08-21T06:40:35;100498.69;;;17.23;100.00
21203;BME280;10759;51.982;9.232;2022-08-21T06:43:13;100501.44;;;17.50;100.00
21203;BME280;10759;51.982;9.232;2022-08-21T06:45:44;100463.97;;;17.29;100.00
21203;BME280;10759;51.982;9.232;2022-08-21T06:48:12;100499.59;;;17.65;100.00
21203;BME280;10759;51.982;9.232;2022-08-21T06:50:45;100354.94;;;16.70;100.00
21203;BME280;10759;51.982;9.232;2022-08-21T06:53:15;100456.78;;;17.43;100.00
21203;BME280;10759;51.982;9.232;2022-08-21T06:55:44;100504.38;;;17.88;100.00
21203;BME280;10759;51.982;9.232;2022-08-21T06:58:13;100497.22;;;18.14;100.00
21203;BME280;10759;51.982;9.232;2022-08-21T07:00:46;100495.63;;;18.24;100.00
21203;BME280;10759;51.982;9.232;2022-08-21T07:03:24;100495.34;;;18.42;100.00
21203;BME280;10759;51.982;9.232;2022-08-21T07:05:52;100489.91;;;18.42;100.00
21203;BME280;10759;51.982;9.232;2022-08-21T07:08:21;100478.22;;;18.54;100.00
21203;BME280;10759;51.982;9.232;2022-08-21T07:10:49;100471.47;;;18.60;100.00
21203;BME280;10759;51.982;9.232;2022-08-21T07:13:17;100487.47;;;18.77;100.00
21203;BME280;10759;51.982;9.232;2022-08-21T07:15:47;100487.16;;;18.95;99.77
21203;BME280;10759;51.982;9.232;2022-08-21T07:18:16;100479.13;;;19.06;97.23
21203;BME280;10759;51.982;9.232;2022-08-21T07:20:44;100463.47;;;19.09;96.12
21203;BME280;10759;51.982;9.232;2022-08-21T07:23:20;100477.56;;;19.15;94.55
21203;BME280;10759;51.982;9.232;2022-08-21T07:25:50;100344.06;;;18.58;92.93
21203;BME280;10759;51.982;9.232;2022-08-21T07:28:18;100475.78;;;19.39;95.97
21203;BME280;10759;51.982;9.232;2022-08-21T07:30:50;100467.97;;;19.47;94.90
21203;BME280;10759;51.982;9.232;2022-08-21T07:33:20;100466.19;;;19.46;93.41
21203;BME280;10759;51.982;9.232;2022-08-21T07:35:47;100460.25;;;19.78;93.25
21203;BME280;10759;51.982;9.232;2022-08-21T07:38:15;100443.31;;;19.75;93.60
21203;BME280;10759;51.982;9.232;2022-08-21T07:40:45;100461.97;;;20.03;89.53
21203;BME280;10759;51.982;9.232;2022-08-21T07:43:13;100462.91;;;20.15;88.28
21203;BME280;10759;51.982;9.232;2022-08-21T07:45:43;100467.06;;;20.08;86.03
21203;BME280;10759;51.982;9.232;2022-08-21T07:48:13;100457.88;;;20.22;89.12
21203;BME280;10759;51.982;9.232;2022-08-21T07:50:41;100459.78;;;20.44;90.28
21203;BME280;10759;51.982;9.232;2022-08-21T07:53:09;100459.22;;;20.27;86.44
21203;BME280;10759;51.982;9.232;2022-08-21T07:55:38;100463.22;;;20.34;84.95
21203;BME280;10759;51.982;9.232;2022-08-21T07:58:06;100456.41;;;20.64;86.29
21203;BME280;10759;51.982;9.232;2022-08-21T08:00:34;100417.34;;;20.52;85.92
21203;BME280;10759;51.982;9.232;2022-08-21T08:03:02;100451.88;;;21.10;85.73
21203;BME280;10759;51.982;9.232;2022-08-21T08:05:32;100451.13;;;21.08;82.42
21203;BME280;10759;51.982;9.232;2022-08-21T08:08:03;100425.38;;;21.12;86.22
21203;BME280;10759;51.982;9.232;2022-08-21T08:10:31;100448.75;;;21.48;84.41
21203;BME280;10759;51.982;9.232;2022-08-21T08:13:00;100415.16;;;21.48;80.21
21203;BME280;10759;51.982;9.232;2022-08-21T08:15:28;100441.53;;;21.58;78.58
21203;BME280;10759;51.982;9.232;2022-08-21T08:18:01;100429.00;;;21.67;71.55
21203;BME280;10759;51.982;9.232;2022-08-21T08:20:29;100416.38;;;21.66;72.79
21203;BME280;10759;51.982;9.232;2022-08-21T08:22:58;100408.97;;;21.89;72.17
21203;BME280;10759;51.982;9.232;2022-08-21T08:25:27;100448.31;;;22.07;64.76
21203;BME280;10759;51.982;9.232;2022-08-21T08:28:03;100404.81;;;21.74;62.66
21203;BME280;10759;51.982;9.232;2022-08-21T08:30:43;100441.44;;;21.92;66.30
21203;BME280;10759;51.982;9.232;2022-08-21T08:33:12;100419.03;;;22.09;62.22
21203;BME280;10759;51.982;9.232;2022-08-21T08:35:40;100437.66;;;22.04;63.34
21203;BME280;10759;51.982;9.232;2022-08-21T08:38:10;100426.47;;;21.86;60.21
21203;BME280;10759;51.982;9.232;2022-08-21T08:40:41;100428.19;;;21.87;60.77
21203;BME280;10759;51.982;9.232;2022-08-21T08:43:12;100377.28;;;21.77;64.23
21203;BME280;10759;51.982;9.232;2022-08-21T08:45:46;100421.22;;;22.27;60.36
21203;BME280;10759;51.982;9.232;2022-08-21T08:48:29;100429.16;;;22.30;56.29
21203;BME280;10759;51.982;9.232;2022-08-21T08:51:00;100406.78;;;22.04;56.53
21203;BME280;10759;51.982;9.232;2022-08-21T08:53:33;100404.13;;;22.14;56.03
21203;BME280;10759;51.982;9.232;2022-08-21T08:56:05;100422.22;;;22.26;56.47
21203;BME280;10759;51.982;9.232;2022-08-21T08:58:36;100421.75;;;22.09;55.09
21203;BME280;10759;51.982;9.232;2022-08-21T09:01:08;100410.44;;;21.93;60.19
21203;BME280;10759;51.982;9.232;2022-08-21T09:03:38;100423.97;;;22.16;58.79
21203;BME280;10759;51.982;9.232;2022-08-21T09:06:11;100420.31;;;22.38;62.09
21203;BME280;10759;51.982;9.232;2022-08-21T09:08:51;100411.97;;;22.39;59.10
21203;BME280;10759;51.982;9.232;2022-08-21T09:11:26;100410.81;;;22.42;59.41
21203;BME280;10759;51.982;9.232;2022-08-21T09:14:02;100411.56;;;22.65;59.62
21203;BME280;10759;51.982;9.232;2022-08-21T09:16:41;100405.75;;;22.58;57.92
21203;BME280;10759;51.982;9.232;2022-08-21T09:19:27;100411.44;;;22.45;57.02
21203;BME280;10759;51.982;9.232;2022-08-21T09:22:03;100406.84;;;22.46;57.75
21203;BME280;10759;51.982;9.232;2022-08-21T09:24:42;100393.38;;;22.54;58.87
21203;BME280;10759;51.982;9.232;2022-08-21T09:27:19;100409.84;;;22.94;58.40
21203;BME280;10759;51.982;9.232;2022-08-21T09:29:51;100399.03;;;22.93;53.40
21203;BME280;10759;51.982;9.232;2022-08-21T09:32:24;100415.09;;;23.07;55.29
21203;BME280;10759;51.982;9.232;2022-08-21T09:35:06;100401.59;;;23.15;53.04
21203;BME280;10759;51.982;9.232;2022-08-21T09:37:47;100395.75;;;23.40;51.80
21203;BME280;10759;51.982;9.232;2022-08-21T09:40:21;100368.44;;;23.49;51.26
21203;BME280;10759;51.982;9.232;2022-08-21T09:42:55;100409.06;;;23.64;51.29
21203;BME280;10759;51.982;9.232;2022-08-21T09:45:23;100413.06;;;23.69;48.31
21203;BME280;10759;51.982;9.232;2022-08-21T09:47:52;100402.97;;;23.60;48.99
21203;BME280;10759;51.982;9.232;2022-08-21T09:50:26;100400.53;;;23.57;50.70
21203;BME280;10759;51.982;9.232;2022-08-21T09:52:57;100215.25;;;22.10;51.07
21203;BME280;10759;51.982;9.232;2022-08-21T09:55:33;100396.78;;;22.98;52.73
21203;BME280;10759;51.982;9.232;2022-08-21T09:58:20;100401.66;;;23.45;56.36
21203;BME280;10759;51.982;9.232;2022-08-21T10:00:57;100397.75;;;23.38;53.72
21203;BME280;10759;51.982;9.232;2022-08-21T10:03:26;100393.47;;;23.54;49.68
21203;BME280;10759;51.982;9.232;2022-08-21T10:05:57;100382.69;;;23.72;50.05
21203;BME280;10759;51.982;9.232;2022-08-21T10:08:27;100344.53;;;23.42;46.54
21203;BME280;10759;51.982;9.232;2022-08-21T10:11:02;100351.00;;;23.31;47.02
21203;BME280;10759;51.982;9.232;2022-08-21T10:13:43;100391.53;;;23.76;50.53
21203;BME280;10759;51.982;9.232;2022-08-21T10:16:27;100391.25;;;23.89;46.77
21203;BME280;10759;51.982;9.232;2022-08-21T10:19:15;100386.91;;;23.96;48.48
21203;BME280;10759;51.982;9.232;2022-08-21T10:21:59;100379.69;;;24.14;47.53
21203;BME280;10759;51.982;9.232;2022-08-21T10:24:31;100370.59;;;24.33;47.86
21203;BME280;10759;51.982;9.232;2022-08-21T10:27:14;100380.09;;;24.29;42.71
21203;BME280;10759;51.982;9.232;2022-08-21T10:29:49;100356.41;;;24.00;43.00
21203;BME280;10759;51.982;9.232;2022-08-21T10:32:36;100362.28;;;23.96;44.30
21203;BME280;10759;51.982;9.232;2022-08-21T10:35:12;100378.84;;;23.85;45.04
21203;BME280;10759;51.982;9.232;2022-08-21T10:37:49;100310.00;;;23.31;43.40
21203;BME280;10759;51.982;9.232;2022-08-21T10:40:25;100378.28;;;23.91;44.89
21203;BME280;10759;51.982;9.232;2022-08-21T10:43:15;100348.44;;;23.49;45.24
21203;BME280;10759;51.982;9.232;2022-08-21T10:45:52;100373.09;;;23.78;46.73
21203;BME280;10759;51.982;9.232;2022-08-21T10:48:25;100371.94;;;24.00;46.04
21203;BME280;10759;51.982;9.232;2022-08-21T10:51:02;100367.63;;;23.88;45.22
21203;BME280;10759;51.982;9.232;2022-08-21T10:53:41;100365.00;;;23.67;45.82
21203;BME280;10759;51.982;9.232;2022-08-21T10:56:17;100370.50;;;23.76;47.51
21203;BME280;10759;51.982;9.232;2022-08-21T10:58:53;100330.03;;;23.51;46.73
21203;BME280;10759;51.982;9.232;2022-08-21T11:01:28;100371.06;;;23.90;47.95
21203;BME280;10759;51.982;9.232;2022-08-21T11:04:09;100358.41;;;23.98;44.09
21203;BME280;10759;51.982;9.232;2022-08-21T11:06:43;100365.88;;;23.87;45.03
21203;BME280;10759;51.982;9.232;2022-08-21T11:09:15;100365.00;;;24.15;49.98
21203;BME280;10759;51.982;9.232;2022-08-21T11:11:50;100316.91;;;24.03;44.79
21203;BME280;10759;51.982;9.232;2022-08-21T11:14:41;100360.34;;;24.45;46.44
21203;BME280;10759;51.982;9.232;2022-08-21T11:17:16;100360.22;;;24.56;49.83
21203;BME280;10759;51.982;9.232;2022-08-21T11:19:52;100341.22;;;24.26;44.90
21203;BME280;10759;51.982;9.232;2022-08-21T11:22:24;100357.50;;;24.37;46.10
21203;BME280;10759;51.982;9.232;2022-08-21T11:24:58;100356.94;;;24.24;43.98
21203;BME280;10759;51.982;9.232;2022-08-21T11:27:32;100363.66;;;24.39;44.51
21203;BME280;10759;51.982;9.232;2022-08-21T11:30:05;100337.31;;;24.28;45.48
21203;BME280;10759;51.982;9.232;2022-08-21T11:32:49;100354.84;;;24.64;44.38
21203;BME280;10759;51.982;9.232;2022-08-21T11:35:28;100355.44;;;24.39;43.71
21203;BME280;10759;51.982;9.232;2022-08-21T11:38:20;100344.22;;;24.52;43.93
21203;BME280;10759;51.982;9.232;2022-08-21T11:41:03;100348.78;;;24.61;42.82
21203;BME280;10759;51.982;9.232;2022-08-21T11:43:38;100342.34;;;24.33;43.36
21203;BME280;10759;51.982;9.232;2022-08-21T11:46:18;100357.06;;;24.32;43.03
21203;BME280;10759;51.982;9.232;2022-08-21T11:48:59;100267.72;;;23.74;43.48
21203;BME280;10759;51.982;9.232;2022-08-21T11:51:34;100349.97;;;24.39;43.92
21203;BME280;10759;51.982;9.232;2022-08-21T11:54:21;100351.16;;;24.83;47.17
21203;BME280;10759;51.982;9.232;2022-08-21T11:56:54;100361.53;;;24.80;43.70
21203;BME280;10759;51.982;9.232;2022-08-21T11:59:28;100356.88;;;24.53;42.79
21203;BME280;10759;51.982;9.232;2022-08-21T12:02:11;100355.44;;;24.39;42.71
21203;BME280;10759;51.982;9.232;2022-08-21T12:04:45;100359.19;;;24.38;43.80
21203;BME280;10759;51.982;9.232;2022-08-21T12:07:17;100350.16;;;24.18;42.79
21203;BME280;10759;51.982;9.232;2022-08-21T12:09:54;100357.53;;;24.08;43.44
21203;BME280;10759;51.982;9.232;2022-08-21T12:12:24;100356.81;;;24.15;42.91
21203;BME280;10759;51.982;9.232;2022-08-21T12:15:15;100339.31;;;24.36;45.12
21203;BME280;10759;51.982;9.232;2022-08-21T12:17:55;100363.47;;;24.70;42.82
21203;BME280;10759;51.982;9.232;2022-08-21T12:20:38;100351.25;;;24.92;42.95
21203;BME280;10759;51.982;9.232;2022-08-21T12:23:24;100350.69;;;24.88;41.16
21203;BME280;10759;51.982;9.232;2022-08-21T12:26:02;100351.47;;;24.71;43.29
21203;BME280;10759;51.982;9.232;2022-08-21T12:28:30;100351.53;;;24.51;41.54
21203;BME280;10759;51.982;9.232;2022-08-21T12:30:59;100347.72;;;24.25;43.27
21203;BME280;10759;51.982;9.232;2022-08-21T12:33:32;100341.94;;;24.47;43.24
21203;BME280;10759;51.982;9.232;2022-08-21T12:36:04;100335.69;;;24.45;42.04
21203;BME280;10759;51.982;9.232;2022-08-21T12:38:43;100305.00;;;24.51;45.41
21203;BME280;10759;51.982;9.232;2022-08-21T12:41:15;100351.22;;;25.01;40.46
21203;BME280;10759;51.982;9.232;2022-08-21T12:43:48;100336.00;;;24.89;43.36
21203;BME280;10759;51.982;9.232;2022-08-21T12:46:29;100277.47;;;24.80;41.84
21203;BME280;10759;51.982;9.232;2022-08-21T12:49:06;100337.13;;;25.24;43.68
21203;BME280;10759;51.982;9.232;2022-08-21T12:51:46;100271.75;;;24.74;39.59
21203;BME280;10759;51.982;9.232;2022-08-21T12:54:23;100318.91;;;24.95;42.43
21203;BME280;10759;51.982;9.232;2022-08-21T12:56:57;100304.88;;;24.80;40.81
21203;BME280;10759;51.982;9.232;2022-08-21T12:59:26;100333.09;;;24.53;41.42
21203;BME280;10759;51.982;9.232;2022-08-21T13:01:54;100326.03;;;24.41;42.25
21203;BME280;10759;51.982;9.232;2022-08-21T13:04:33;100329.50;;;24.43;43.21
21203;BME280;10759;51.982;9.232;2022-08-21T13:07:06;100327.63;;;24.53;43.49
21203;BME280;10759;51.982;9.232;2022-08-21T13:09:44;100320.53;;;24.88;42.58